CDT,Max TemperatureF,Mean TemperatureF,Min TemperatureF,Max Dew PointF,MeanDew PointF,Min DewpointF,Max Humidity, Mean Humidity, Min Humidity, Max Sea Level PressureIn, Mean Sea Level PressureIn, Min Sea Level PressureIn, Max VisibilityMiles, Mean VisibilityMiles, Min VisibilityMiles, Max Wind SpeedMPH, Mean Wind SpeedMPH, Max Gust SpeedMPH,PrecipitationIn, CloudCover, Events, WindDirDegrees
2013-3-1,26,20,15,18,14,10,79,68,55,30.26,30.21,30.12,10,10,10,13,8,16,0.00,5,Rain,9
2013-3-2,26,18,10,10,8,3,86,67,40,30.27,30.22,30.15,10,10,10,10,4,13,0.00,1,,327
2013-3-3,30,19,8,10,8,3,85,60,37,30.15,30.06,29.99,10,10,10,10,3,,0.00,2,,144
2013-3-4,30,26,21,25,17,10,93,70,54,30.01,29.95,29.89,10,8,1,22,11,29,0.00,7,Rain-Snow,115
2013-3-5,28,26,23,25,23,19,100,88,80,30.18,29.99,29.91,10,5,0,15,7,20,0.21,7,Rain-Snow,13
2013-3-6,26,19,12,21,16,10,93,78,64,30.33,30.29,30.17,10,10,6,18,11,24,0.00,4,Snow,333
2013-3-7,30,16,3,19,12,-2,93,79,60,30.37,30.33,30.31,10,8,3,8,2,,0.00,1,Snow,147
2013-3-8,37,27,17,28,23,16,93,82,70,30.35,30.28,30.14,10,8,3,15,9,24,0.00,2,,144
2013-3-9,37,34,32,37,34,28,100,95,87,30.13,29.87,29.73,7,3,0,16,11,28,0.24,8,Fog-Rain-Snow,155
2013-3-10,37,34,32,37,35,32,100,99,93,29.79,29.71,29.64,10,3,0,16,8,24,0.57,8,Fog-Rain-Snow,24
2013-3-11,32,28,24,32,27,21,100,92,86,29.83,29.69,29.64,10,8,2,18,12,24,0.00,8,Rain-Snow,332
2013-3-12,28,22,17,25,18,14,93,81,69,30.09,29.92,29.83,10,9,2,20,8,29,0.00,7,Rain-Snow,289
2013-3-13,28,21,14,16,13,9,86,70,51,30.33,30.27,30.10,10,10,8,16,9,22,0.00,1,Snow,303
2013-3-14,33,25,17,28,23,14,93,85,74,30.29,30.14,30.01,10,9,0,12,4,18,0.01,4,Snow,154
2013-3-15,37,32,26,34,30,27,100,92,81,30.00,29.86,29.74,7,4,0,12,3,14,0.00,5,Rain,83
2013-3-16,33,27,21,34,23,14,100,84,59,30.17,29.98,29.78,10,6,0,18,9,25,0.00,5,Fog-Rain,334
2013-3-17,30,22,14,21,13,7,80,66,51,30.19,30.08,29.91,10,10,10,16,10,28,0.00,2,,100
2013-3-18,32,23,14,30,19,7,100,81,63,29.90,29.73,29.59,10,7,0,22,11,36,0.09,7,Rain-Snow,217
2013-3-19,23,16,8,9,5,0,85,64,46,30.13,29.99,29.80,10,10,4,17,13,31,0.00,3,Snow,291
2013-3-20,17,12,6,5,0,-4,73,60,49,30.15,30.11,30.07,10,10,10,18,13,30,0.00,1,,305
2013-3-21,23,13,3,9,4,-2,78,62,46,30.09,30.04,30.00,10,10,10,10,4,15,0.00,0,,328
2013-3-22,32,20,8,16,10,3,85,64,47,30.06,30.03,30.00,10,10,10,9,2,,0.00,0,,303
2013-3-23,35,27,19,21,16,12,80,60,44,30.11,30.07,30.02,10,10,10,9,3,12,0.00,2,,338
2013-3-24,32,30,28,27,23,19,86,74,64,30.03,29.92,29.85,10,8,1,15,7,23,0.00,7,Rain-Snow,26
2013-3-25,33,28,23,25,20,16,86,70,60,30.16,30.02,29.88,10,10,10,20,12,25,0.00,6,,340
2013-3-26,37,30,24,25,20,14,86,69,41,30.28,30.23,30.16,10,10,10,10,6,17,0.00,7,,310
2013-3-27,39,31,23,23,19,16,93,63,39,30.33,30.30,30.28,10,10,10,8,2,13,0.00,1,,296
2013-3-28,41,31,21,25,21,19,93,62,45,30.34,30.31,30.27,10,10,10,7,1,,0.00,6,,143
2013-3-29,50,39,28,36,28,21,80,64,53,30.30,30.24,30.14,10,10,10,9,2,,0.00,3,,142
2013-3-30,48,42,35,45,37,30,100,85,65,30.14,29.95,29.84,10,7,0,16,10,26,0.02,7,Fog-Rain,192
2013-3-31,39,34,30,36,29,19,100,82,52,29.99,29.85,29.80,10,6,0,20,8,38,0.00,5,Fog,293